sensor_id;sensor_type;location;lat;lon;timestamp;P1;durP1;ratioP1;P2;durP2;ratioP2
60502;SDS011;51448;51.660;5.824;2024-03-06T00:00:40;23.23;;;18.13;;
60502;SDS011;51448;51.660;5.824;2024-03-06T00:03:08;22.92;;;17.77;;
60502;SDS011;51448;51.660;5.824;2024-03-06T00:05:35;23.42;;;17.65;;
60502;SDS011;51448;51.660;5.824;2024-03-06T00:08:03;18.55;;;14.50;;
60502;SDS011;51448;51.660;5.824;2024-03-06T00:10:31;18.35;;;14.93;;
60502;SDS011;51448;51.660;5.824;2024-03-06T00:12:59;25.30;;;18.20;;
60502;SDS011;51448;51.660;5.824;2024-03-06T00:15:27;19.92;;;15.25;;
60502;SDS011;51448;51.660;5.824;2024-03-06T00:17:55;19.90;;;15.35;;
60502;SDS011;51448;51.660;5.824;2024-03-06T00:20:22;19.48;;;15.25;;
60502;SDS011;51448;51.660;5.824;2024-03-06T00:22:50;21.33;;;16.13;;
60502;SDS011;51448;51.660;5.824;2024-03-06T00:25:17;18.95;;;16.02;;
60502;SDS011;51448;51.660;5.824;2024-03-06T00:27:45;21.30;;;17.13;;
60502;SDS011;51448;51.660;5.824;2024-03-06T00:30:12;22.38;;;16.83;;
60502;SDS011;51448;51.660;5.824;2024-03-06T00:32:40;19.15;;;16.38;;
60502;SDS011;51448;51.660;5.824;2024-03-06T00:35:08;19.10;;;16.02;;
60502;SDS011;51448;51.660;5.824;2024-03-06T00:37:36;20.33;;;16.75;;
60502;SDS011;51448;51.660;5.824;2024-03-06T00:40:03;21.35;;;16.23;;
60502;SDS011;51448;51.660;5.824;2024-03-06T00:42:31;23.08;;;17.35;;
60502;SDS011;51448;51.660;5.824;2024-03-06T00:45:00;22.15;;;17.45;;
60502;SDS011;51448;51.660;5.824;2024-03-06T00:47:29;24.63;;;19.13;;
60502;SDS011;51448;51.660;5.824;2024-03-06T00:49:56;25.25;;;19.25;;
60502;SDS011;51448;51.660;5.824;2024-03-06T00:52:24;21.98;;;18.13;;
60502;SDS011;51448;51.660;5.824;2024-03-06T00:54:52;23.70;;;18.13;;
60502;SDS011;51448;51.660;5.824;2024-03-06T00:57:20;23.67;;;19.05;;
60502;SDS011;51448;51.660;5.824;2024-03-06T00:59:47;22.40;;;17.25;;
60502;SDS011;51448;51.660;5.824;2024-03-06T01:02:15;22.67;;;18.13;;
60502;SDS011;51448;51.660;5.824;2024-03-06T01:04:42;27.73;;;17.48;;
60502;SDS011;51448;51.660;5.824;2024-03-06T01:07:10;26.58;;;18.88;;
60502;SDS011;51448;51.660;5.824;2024-03-06T01:09:37;21.20;;;17.65;;
60502;SDS011;51448;51.660;5.824;2024-03-06T01:12:05;22.38;;;18.63;;
60502;SDS011;51448;51.660;5.824;2024-03-06T01:14:33;22.38;;;17.15;;
60502;SDS011;51448;51.660;5.824;2024-03-06T01:17:04;23.65;;;17.38;;
60502;SDS011;51448;51.660;5.824;2024-03-06T01:19:32;17.90;;;13.88;;
60502;SDS011;51448;51.660;5.824;2024-03-06T01:22:00;13.88;;;11.35;;
60502;SDS011;51448;51.660;5.824;2024-03-06T01:24:27;13.07;;;11.43;;
60502;SDS011;51448;51.660;5.824;2024-03-06T01:26:55;17.15;;;12.98;;
60502;SDS011;51448;51.660;5.824;2024-03-06T01:29:22;17.27;;;13.10;;
60502;SDS011;51448;51.660;5.824;2024-03-06T01:31:50;20.85;;;15.60;;
60502;SDS011;51448;51.660;5.824;2024-03-06T01:34:17;20.52;;;15.52;;
60502;SDS011;51448;51.660;5.824;2024-03-06T01:36:45;30.02;;;11.80;;
60502;SDS011;51448;51.660;5.824;2024-03-06T01:39:13;14.60;;;11.43;;
60502;SDS011;51448;51.660;5.824;2024-03-06T01:41:47;12.18;;;10.77;;
60502;SDS011;51448;51.660;5.824;2024-03-06T01:44:27;11.43;;;10.23;;
60502;SDS011;51448;51.660;5.824;2024-03-06T01:46:55;13.75;;;12.25;;
60502;SDS011;51448;51.660;5.824;2024-03-06T01:49:23;14.07;;;12.05;;
60502;SDS011;51448;51.660;5.824;2024-03-06T01:52:07;13.82;;;12.35;;
60502;SDS011;51448;51.660;5.824;2024-03-06T01:54:38;14.52;;;12.00;;
60502;SDS011;51448;51.660;5.824;2024-03-06T01:57:07;15.13;;;12.48;;
60502;SDS011;51448;51.660;5.824;2024-03-06T01:59:35;17.17;;;13.70;;
60502;SDS011;51448;51.660;5.824;2024-03-06T02:02:04;14.65;;;13.02;;
60502;SDS011;51448;51.660;5.824;2024-03-06T02:04:32;16.80;;;14.57;;
60502;SDS011;51448;51.660;5.824;2024-03-06T02:07:00;17.48;;;13.20;;
60502;SDS011;51448;51.660;5.824;2024-03-06T02:09:29;18.20;;;13.55;;
60502;SDS011;51448;51.660;5.824;2024-03-06T02:11:57;18.35;;;15.05;;
60502;SDS011;51448;51.660;5.824;2024-03-06T02:14:24;19.88;;;16.85;;
60502;SDS011;51448;51.660;5.824;2024-03-06T02:16:52;21.02;;;17.77;;
60502;SDS011;51448;51.660;5.824;2024-03-06T02:19:20;23.10;;;17.83;;
60502;SDS011;51448;51.660;5.824;2024-03-06T02:21:47;25.45;;;19.70;;
60502;SDS011;51448;51.660;5.824;2024-03-06T02:24:15;31.00;;;21.38;;
60502;SDS011;51448;51.660;5.824;2024-03-06T02:26:42;29.55;;;21.85;;
60502;SDS011;51448;51.660;5.824;2024-03-06T02:29:10;27.77;;;21.65;;
60502;SDS011;51448;51.660;5.824;2024-03-06T02:31:37;29.92;;;21.17;;
60502;SDS011;51448;51.660;5.824;2024-03-06T02:34:06;31.17;;;22.10;;
60502;SDS011;51448;51.660;5.824;2024-03-06T02:36:34;31.80;;;20.38;;
60502;SDS011;51448;51.660;5.824;2024-03-06T02:39:03;28.60;;;20.58;;
60502;SDS011;51448;51.660;5.824;2024-03-06T02:41:36;38.33;;;25.77;;
60502;SDS011;51448;51.660;5.824;2024-03-06T02:44:04;31.35;;;22.60;;
60502;SDS011;51448;51.660;5.824;2024-03-06T02:46:31;33.95;;;25.40;;
60502;SDS011;51448;51.660;5.824;2024-03-06T02:48:59;32.30;;;24.35;;
60502;SDS011;51448;51.660;5.824;2024-03-06T02:51:27;35.20;;;24.83;;
60502;SDS011;51448;51.660;5.824;2024-03-06T02:53:55;29.75;;;22.17;;
60502;SDS011;51448;51.660;5.824;2024-03-06T02:56:22;32.55;;;24.92;;
60502;SDS011;51448;51.660;5.824;2024-03-06T02:58:50;33.17;;;24.08;;
60502;SDS011;51448;51.660;5.824;2024-03-06T03:01:17;32.10;;;24.30;;
60502;SDS011;51448;51.660;5.824;2024-03-06T03:03:45;30.67;;;22.02;;
60502;SDS011;51448;51.660;5.824;2024-03-06T03:06:14;29.83;;;22.42;;
60502;SDS011;51448;51.660;5.824;2024-03-06T03:08:41;34.65;;;24.70;;
60502;SDS011;51448;51.660;5.824;2024-03-06T03:11:09;27.58;;;21.08;;
60502;SDS011;51448;51.660;5.824;2024-03-06T03:13:37;24.20;;;17.48;;
60502;SDS011;51448;51.660;5.824;2024-03-06T03:16:05;26.65;;;18.08;;
60502;SDS011;51448;51.660;5.824;2024-03-06T03:18:33;70.68;;;19.92;;
60502;SDS011;51448;51.660;5.824;2024-03-06T03:21:00;77.45;;;16.15;;
60502;SDS011;51448;51.660;5.824;2024-03-06T03:23:28;38.00;;;17.13;;
60502;SDS011;51448;51.660;5.824;2024-03-06T03:25:56;29.95;;;12.73;;
60502;SDS011;51448;51.660;5.824;2024-03-06T03:28:24;48.95;;;13.43;;
60502;SDS011;51448;51.660;5.824;2024-03-06T03:30:51;122.85;;;15.30;;
60502;SDS011;51448;51.660;5.824;2024-03-06T03:33:19;52.97;;;14.98;;
60502;SDS011;51448;51.660;5.824;2024-03-06T03:35:47;18.60;;;12.32;;
60502;SDS011;51448;51.660;5.824;2024-03-06T03:38:14;61.45;;;13.65;;
60502;SDS011;51448;51.660;5.824;2024-03-06T03:40:42;17.67;;;12.88;;
60502;SDS011;51448;51.660;5.824;2024-03-06T03:43:10;26.92;;;12.25;;
60502;SDS011;51448;51.660;5.824;2024-03-06T03:45:37;20.27;;;11.98;;
60502;SDS011;51448;51.660;5.824;2024-03-06T03:48:05;40.03;;;10.75;;
60502;SDS011;51448;51.660;5.824;2024-03-06T03:50:33;18.55;;;11.23;;
60502;SDS011;51448;51.660;5.824;2024-03-06T03:53:01;13.82;;;11.18;;
60502;SDS011;51448;51.660;5.824;2024-03-06T03:55:29;15.23;;;10.88;;
60502;SDS011;51448;51.660;5.824;2024-03-06T03:57:56;23.23;;;11.07;;
60502;SDS011;51448;51.660;5.824;2024-03-06T04:00:24;18.55;;;12.55;;
60502;SDS011;51448;51.660;5.824;2024-03-06T04:02:51;21.02;;;11.52;;
60502;SDS011;51448;51.660;5.824;2024-03-06T04:05:19;34.80;;;12.45;;
60502;SDS011;51448;51.660;5.824;2024-03-06T04:07:47;95.95;;;13.80;;
60502;SDS011;51448;51.660;5.824;2024-03-06T04:10:14;12.88;;;11.32;;
60502;SDS011;51448;51.660;5.824;2024-03-06T04:12:42;18.52;;;11.68;;
60502;SDS011;51448;51.660;5.824;2024-03-06T04:15:10;12.75;;;11.45;;
60502;SDS011;51448;51.660;5.824;2024-03-06T04:17:37;13.73;;;11.27;;
60502;SDS011;51448;51.660;5.824;2024-03-06T04:20:05;41.00;;;12.65;;
60502;SDS011;51448;51.660;5.824;2024-03-06T04:22:34;20.13;;;11.80;;
60502;SDS011;51448;51.660;5.824;2024-03-06T04:25:01;18.80;;;13.52;;
60502;SDS011;51448;51.660;5.824;2024-03-06T04:27:31;39.13;;;13.38;;
60502;SDS011;51448;51.660;5.824;2024-03-06T04:29:58;15.18;;;11.15;;
60502;SDS011;51448;51.660;5.824;2024-03-06T04:32:27;17.65;;;11.75;;
60502;SDS011;51448;51.660;5.824;2024-03-06T04:34:54;24.38;;;13.20;;
60502;SDS011;51448;51.660;5.824;2024-03-06T04:37:23;13.85;;;12.23;;
60502;SDS011;51448;51.660;5.824;2024-03-06T04:39:50;34.70;;;12.77;;
60502;SDS011;51448;51.660;5.824;2024-03-06T04:42:18;39.85;;;13.10;;
60502;SDS011;51448;51.660;5.824;2024-03-06T04:44:46;34.85;;;13.60;;
60502;SDS011;51448;51.660;5.824;2024-03-06T04:47:13;16.73;;;13.90;;
60502;SDS011;51448;51.660;5.824;2024-03-06T04:49:41;14.77;;;13.15;;
60502;SDS011;51448;51.660;5.824;2024-03-06T04:52:09;18.20;;;13.02;;
60502;SDS011;51448;51.660;5.824;2024-03-06T04:54:37;14.57;;;13.02;;
60502;SDS011;51448;51.660;5.824;2024-03-06T04:57:04;95.35;;;15.75;;
60502;SDS011;51448;51.660;5.824;2024-03-06T04:59:32;76.75;;;16.35;;
60502;SDS011;51448;51.660;5.824;2024-03-06T05:01:59;62.33;;;16.45;;
60502;SDS011;51448;51.660;5.824;2024-03-06T05:04:27;83.55;;;16.60;;
60502;SDS011;51448;51.660;5.824;2024-03-06T05:07:12;93.40;;;17.02;;
60502;SDS011;51448;51.660;5.824;2024-03-06T05:09:58;124.82;;;17.70;;
60502;SDS011;51448;51.660;5.824;2024-03-06T05:12:43;127.10;;;20.17;;
60502;SDS011;51448;51.660;5.824;2024-03-06T05:15:28;125.80;;;20.10;;
60502;SDS011;51448;51.660;5.824;2024-03-06T05:18:13;73.45;;;19.20;;
60502;SDS011;51448;51.660;5.824;2024-03-06T05:20:58;109.07;;;21.15;;
60502;SDS011;51448;51.660;5.824;2024-03-06T05:23:43;83.97;;;21.13;;
60502;SDS011;51448;51.660;5.824;2024-03-06T05:26:28;64.65;;;22.55;;
60502;SDS011;51448;51.660;5.824;2024-03-06T05:29:13;65.97;;;21.00;;
60502;SDS011;51448;51.660;5.824;2024-03-06T05:31:58;48.78;;;20.83;;
60502;SDS011;51448;51.660;5.824;2024-03-06T05:34:43;116.20;;;23.40;;
60502;SDS011;51448;51.660;5.824;2024-03-06T05:37:29;40.25;;;22.10;;
60502;SDS011;51448;51.660;5.824;2024-03-06T05:40:13;86.18;;;22.45;;
60502;SDS011;51448;51.660;5.824;2024-03-06T05:42:58;72.82;;;21.15;;
60502;SDS011;51448;51.660;5.824;2024-03-06T05:45:44;47.40;;;20.20;;
60502;SDS011;51448;51.660;5.824;2024-03-06T05:48:29;64.03;;;20.05;;
60502;SDS011;51448;51.660;5.824;2024-03-06T05:51:14;44.85;;;18.80;;
60502;SDS011;51448;51.660;5.824;2024-03-06T05:53:59;69.65;;;19.98;;
60502;SDS011;51448;51.660;5.824;2024-03-06T05:56:44;37.72;;;20.17;;
60502;SDS011;51448;51.660;5.824;2024-03-06T05:59:29;48.38;;;19.75;;
60502;SDS011;51448;51.660;5.824;2024-03-06T06:01:57;58.40;;;19.58;;
60502;SDS011;51448;51.660;5.824;2024-03-06T06:04:24;41.25;;;19.63;;
60502;SDS011;51448;51.660;5.824;2024-03-06T06:06:52;44.88;;;21.67;;
60502;SDS011;51448;51.660;5.824;2024-03-06T06:09:20;62.42;;;20.48;;
60502;SDS011;51448;51.660;5.824;2024-03-06T06:11:48;60.00;;;20.80;;
60502;SDS011;51448;51.660;5.824;2024-03-06T06:14:17;87.55;;;20.85;;
60502;SDS011;51448;51.660;5.824;2024-03-06T06:16:45;59.80;;;20.08;;
60502;SDS011;51448;51.660;5.824;2024-03-06T06:19:12;94.00;;;21.40;;
60502;SDS011;51448;51.660;5.824;2024-03-06T06:21:40;89.68;;;21.20;;
60502;SDS011;51448;51.660;5.824;2024-03-06T06:24:07;29.83;;;19.45;;
60502;SDS011;51448;51.660;5.824;2024-03-06T06:26:35;63.85;;;20.95;;
60502;SDS011;51448;51.660;5.824;2024-03-06T06:29:03;41.83;;;19.90;;
60502;SDS011;51448;51.660;5.824;2024-03-06T06:31:30;35.50;;;20.35;;
60502;SDS011;51448;51.660;5.824;2024-03-06T06:33:59;42.30;;;21.52;;
60502;SDS011;51448;51.660;5.824;2024-03-06T06:36:26;74.25;;;21.25;;
60502;SDS011;51448;51.660;5.824;2024-03-06T06:38:54;71.45;;;21.40;;
60502;SDS011;51448;51.660;5.824;2024-03-06T06:41:22;31.55;;;20.55;;
60502;SDS011;51448;51.660;5.824;2024-03-06T06:43:50;51.58;;;21.90;;
60502;SDS011;51448;51.660;5.824;2024-03-06T06:46:19;48.17;;;21.75;;
60502;SDS011;51448;51.660;5.824;2024-03-06T06:48:48;51.35;;;21.27;;
60502;SDS011;51448;51.660;5.824;2024-03-06T06:51:16;34.13;;;20.98;;
60502;SDS011;51448;51.660;5.824;2024-03-06T06:53:43;45.42;;;21.73;;
60502;SDS011;51448;51.660;5.824;2024-03-06T06:56:11;70.07;;;23.63;;
60502;SDS011;51448;51.660;5.824;2024-03-06T06:58:39;56.85;;;23.17;;
60502;SDS011;51448;51.660;5.824;2024-03-06T07:01:09;76.32;;;24.98;;
60502;SDS011;51448;51.660;5.824;2024-03-06T07:03:37;38.67;;;22.33;;
60502;SDS011;51448;51.660;5.824;2024-03-06T07:06:05;73.93;;;25.67;;
60502;SDS011;51448;51.660;5.824;2024-03-06T07:08:33;45.60;;;22.45;;
60502;SDS011;51448;51.660;5.824;2024-03-06T07:11:01;41.60;;;22.05;;
60502;SDS011;51448;51.660;5.824;2024-03-06T07:13:28;49.33;;;23.02;;
60502;SDS011;51448;51.660;5.824;2024-03-06T07:15:56;77.13;;;25.63;;
60502;SDS011;51448;51.660;5.824;2024-03-06T07:18:24;106.05;;;26.70;;
60502;SDS011;51448;51.660;5.824;2024-03-06T07:20:51;41.88;;;22.95;;
60502;SDS011;51448;51.660;5.824;2024-03-06T07:23:19;58.75;;;24.05;;
60502;SDS011;51448;51.660;5.824;2024-03-06T07:25:47;60.72;;;23.00;;
60502;SDS011;51448;51.660;5.824;2024-03-06T07:28:14;51.42;;;22.42;;
60502;SDS011;51448;51.660;5.824;2024-03-06T07:30:42;44.75;;;22.45;;
60502;SDS011;51448;51.660;5.824;2024-03-06T07:33:10;77.88;;;24.50;;
60502;SDS011;51448;51.660;5.824;2024-03-06T07:35:37;69.97;;;22.85;;
60502;SDS011;51448;51.660;5.824;2024-03-06T07:38:05;44.65;;;23.05;;
60502;SDS011;51448;51.660;5.824;2024-03-06T07:40:33;62.85;;;23.77;;
60502;SDS011;51448;51.660;5.824;2024-03-06T07:43:00;52.60;;;24.17;;
60502;SDS011;51448;51.660;5.824;2024-03-06T07:45:28;60.28;;;22.75;;
60502;SDS011;51448;51.660;5.824;2024-03-06T07:47:56;46.97;;;22.92;;
60502;SDS011;51448;51.660;5.824;2024-03-06T07:50:24;40.08;;;22.55;;
60502;SDS011;51448;51.660;5.824;2024-03-06T07:52:53;85.38;;;23.65;;
60502;SDS011;51448;51.660;5.824;2024-03-06T07:55:22;53.20;;;22.45;;
60502;SDS011;51448;51.660;5.824;2024-03-06T07:57:49;106.40;;;23.33;;
60502;SDS011;51448;51.660;5.824;2024-03-06T08:00:17;117.95;;;24.05;;
60502;SDS011;51448;51.660;5.824;2024-03-06T08:02:47;103.80;;;23.63;;
60502;SDS011;51448;51.660;5.824;2024-03-06T08:05:17;66.15;;;23.27;;
60502;SDS011;51448;51.660;5.824;2024-03-06T08:07:45;62.25;;;22.75;;
60502;SDS011;51448;51.660;5.824;2024-03-06T08:10:13;73.07;;;23.45;;
60502;SDS011;51448;51.660;5.824;2024-03-06T08:12:42;70.57;;;20.85;;
60502;SDS011;51448;51.660;5.824;2024-03-06T08:15:12;47.80;;;22.95;;
60502;SDS011;51448;51.660;5.824;2024-03-06T08:17:42;85.85;;;23.17;;
60502;SDS011;51448;51.660;5.824;2024-03-06T08:20:11;89.05;;;23.23;;
60502;SDS011;51448;51.660;5.824;2024-03-06T08:22:40;150.20;;;27.38;;
60502;SDS011;51448;51.660;5.824;2024-03-06T08:25:10;74.65;;;23.73;;
60502;SDS011;51448;51.660;5.824;2024-03-06T08:27:39;66.20;;;22.80;;
60502;SDS011;51448;51.660;5.824;2024-03-06T08:30:09;50.38;;;22.63;;
60502;SDS011;51448;51.660;5.824;2024-03-06T08:32:37;83.82;;;23.17;;
60502;SDS011;51448;51.660;5.824;2024-03-06T08:35:07;61.30;;;22.67;;
60502;SDS011;51448;51.660;5.824;2024-03-06T08:37:42;75.38;;;22.63;;
60502;SDS011;51448;51.660;5.824;2024-03-06T08:40:10;66.85;;;22.48;;
60502;SDS011;51448;51.660;5.824;2024-03-06T08:42:42;45.03;;;22.67;;
60502;SDS011;51448;51.660;5.824;2024-03-06T08:45:11;59.55;;;24.30;;
60502;SDS011;51448;51.660;5.824;2024-03-06T08:47:38;73.85;;;24.48;;
60502;SDS011;51448;51.660;5.824;2024-03-06T08:50:06;51.38;;;23.13;;
60502;SDS011;51448;51.660;5.824;2024-03-06T08:52:35;53.95;;;25.13;;
60502;SDS011;51448;51.660;5.824;2024-03-06T08:55:04;45.65;;;24.42;;
60502;SDS011;51448;51.660;5.824;2024-03-06T08:57:35;67.60;;;25.48;;
60502;SDS011;51448;51.660;5.824;2024-03-06T09:00:07;81.03;;;25.85;;
60502;SDS011;51448;51.660;5.824;2024-03-06T09:02:38;39.47;;;23.40;;
60502;SDS011;51448;51.660;5.824;2024-03-06T09:05:09;46.53;;;23.02;;
60502;SDS011;51448;51.660;5.824;2024-03-06T09:07:40;63.80;;;23.95;;
60502;SDS011;51448;51.660;5.824;2024-03-06T09:10:10;45.47;;;24.45;;
60502;SDS011;51448;51.660;5.824;2024-03-06T09:12:38;63.30;;;25.80;;
60502;SDS011;51448;51.660;5.824;2024-03-06T09:15:06;46.95;;;24.25;;
60502;SDS011;51448;51.660;5.824;2024-03-06T09:17:34;40.90;;;22.55;;
60502;SDS011;51448;51.660;5.824;2024-03-06T09:20:02;45.42;;;22.77;;
60502;SDS011;51448;51.660;5.824;2024-03-06T09:22:37;59.70;;;23.15;;
60502;SDS011;51448;51.660;5.824;2024-03-06T09:25:10;29.38;;;21.95;;
60502;SDS011;51448;51.660;5.824;2024-03-06T09:27:41;37.40;;;21.55;;
60502;SDS011;51448;51.660;5.824;2024-03-06T09:30:09;32.10;;;23.27;;
60502;SDS011;51448;51.660;5.824;2024-03-06T09:32:37;28.70;;;23.63;;
60502;SDS011;51448;51.660;5.824;2024-03-06T09:35:06;30.33;;;23.65;;
60502;SDS011;51448;51.660;5.824;2024-03-06T09:37:34;32.25;;;24.67;;
60502;SDS011;51448;51.660;5.824;2024-03-06T09:40:01;32.63;;;24.65;;
60502;SDS011;51448;51.660;5.824;2024-03-06T09:42:30;32.65;;;24.85;;
60502;SDS011;51448;51.660;5.824;2024-03-06T09:44:57;28.90;;;24.23;;
60502;SDS011;51448;51.660;5.824;2024-03-06T09:47:25;34.28;;;22.10;;
60502;SDS011;51448;51.660;5.824;2024-03-06T09:49:59;35.30;;;24.10;;
60502;SDS011;51448;51.660;5.824;2024-03-06T09:52:30;36.50;;;26.40;;
60502;SDS011;51448;51.660;5.824;2024-03-06T09:54:59;34.83;;;26.90;;
60502;SDS011;51448;51.660;5.824;2024-03-06T09:57:28;36.15;;;27.38;;
60502;SDS011;51448;51.660;5.824;2024-03-06T09:59:55;34.35;;;28.15;;
60502;SDS011;51448;51.660;5.824;2024-03-06T10:05:23;39.50;;;29.15;;
60502;SDS011;51448;51.660;5.824;2024-03-06T10:07:52;38.92;;;30.55;;
60502;SDS011;51448;51.660;5.824;2024-03-06T10:10:20;34.92;;;28.00;;
60502;SDS011;51448;51.660;5.824;2024-03-06T10:12:50;37.03;;;28.10;;
60502;SDS011;51448;51.660;5.824;2024-03-06T10:15:18;47.70;;;32.85;;
60502;SDS011;51448;51.660;5.824;2024-03-06T10:17:46;40.92;;;33.03;;
60502;SDS011;51448;51.660;5.824;2024-03-06T10:22:52;47.38;;;36.28;;
60502;SDS011;51448;51.660;5.824;2024-03-06T10:25:25;47.45;;;35.92;;
60502;SDS011;51448;51.660;5.824;2024-03-06T10:30:40;45.80;;;35.85;;
60502;SDS011;51448;51.660;5.824;2024-03-06T10:33:10;44.10;;;35.08;;
60502;SDS011;51448;51.660;5.824;2024-03-06T10:35:44;51.65;;;39.08;;
60502;SDS011;51448;51.660;5.824;2024-03-06T10:38:13;52.13;;;37.03;;
60502;SDS011;51448;51.660;5.824;2024-03-06T10:40:43;47.03;;;35.58;;
60502;SDS011;51448;51.660;5.824;2024-03-06T10:43:11;43.10;;;33.63;;
60502;SDS011;51448;51.660;5.824;2024-03-06T10:45:46;48.15;;;37.58;;
60502;SDS011;51448;51.660;5.824;2024-03-06T10:48:19;44.63;;;35.80;;
60502;SDS011;51448;51.660;5.824;2024-03-06T10:50:48;44.13;;;35.00;;
60502;SDS011;51448;51.660;5.824;2024-03-06T10:53:18;50.67;;;39.28;;
60502;SDS011;51448;51.660;5.824;2024-03-06T10:55:50;49.85;;;37.70;;
60502;SDS011;51448;51.660;5.824;2024-03-06T10:58:18;48.10;;;38.47;;
60502;SDS011;51448;51.660;5.824;2024-03-06T11:00:48;46.08;;;37.47;;
60502;SDS011;51448;51.660;5.824;2024-03-06T11:03:17;41.22;;;33.10;;
60502;SDS011;51448;51.660;5.824;2024-03-06T11:05:45;43.22;;;33.50;;
60502;SDS011;51448;51.660;5.824;2024-03-06T11:08:18;38.83;;;31.00;;
60502;SDS011;51448;51.660;5.824;2024-03-06T11:10:48;40.83;;;33.80;;
60502;SDS011;51448;51.660;5.824;2024-03-06T11:15:47;43.72;;;33.75;;
60502;SDS011;51448;51.660;5.824;2024-03-06T11:23:30;40.38;;;34.28;;
60502;SDS011;51448;51.660;5.824;2024-03-06T11:26:00;37.60;;;31.92;;
60502;SDS011;51448;51.660;5.824;2024-03-06T11:28:37;41.28;;;33.55;;
60502;SDS011;51448;51.660;5.824;2024-03-06T11:31:08;44.53;;;34.63;;
60502;SDS011;51448;51.660;5.824;2024-03-06T11:33:46;42.40;;;33.72;;
60502;SDS011;51448;51.660;5.824;2024-03-06T11:36:26;34.05;;;29.58;;
60502;SDS011;51448;51.660;5.824;2024-03-06T11:38:56;34.95;;;29.27;;
60502;SDS011;51448;51.660;5.824;2024-03-06T11:41:29;36.95;;;29.38;;
60502;SDS011;51448;51.660;5.824;2024-03-06T11:44:00;33.33;;;26.27;;
60502;SDS011;51448;51.660;5.824;2024-03-06T11:49:31;28.55;;;23.75;;
60502;SDS011;51448;51.660;5.824;2024-03-06T11:52:06;26.35;;;22.50;;
60502;SDS011;51448;51.660;5.824;2024-03-06T11:54:36;23.75;;;20.88;;
60502;SDS011;51448;51.660;5.824;2024-03-06T11:57:06;26.40;;;22.42;;
60502;SDS011;51448;51.660;5.824;2024-03-06T11:59:35;23.75;;;20.52;;
60502;SDS011;51448;51.660;5.824;2024-03-06T12:02:06;21.60;;;17.67;;
60502;SDS011;51448;51.660;5.824;2024-03-06T12:04:35;20.90;;;16.48;;
60502;SDS011;51448;51.660;5.824;2024-03-06T12:07:07;19.00;;;16.73;;
60502;SDS011;51448;51.660;5.824;2024-03-06T12:09:37;19.83;;;15.07;;
60502;SDS011;51448;51.660;5.824;2024-03-06T12:12:10;15.40;;;13.73;;
60502;SDS011;51448;51.660;5.824;2024-03-06T12:14:39;16.75;;;14.93;;
60502;SDS011;51448;51.660;5.824;2024-03-06T12:17:12;17.52;;;14.48;;
60502;SDS011;51448;51.660;5.824;2024-03-06T12:19:43;19.40;;;15.93;;
60502;SDS011;51448;51.660;5.824;2024-03-06T12:22:13;17.60;;;15.30;;
60502;SDS011;51448;51.660;5.824;2024-03-06T12:24:46;18.05;;;15.38;;
60502;SDS011;51448;51.660;5.824;2024-03-06T12:27:13;17.05;;;13.82;;
60502;SDS011;51448;51.660;5.824;2024-03-06T12:29:41;16.88;;;14.18;;
60502;SDS011;51448;51.660;5.824;2024-03-06T12:32:17;17.35;;;14.02;;
60502;SDS011;51448;51.660;5.824;2024-03-06T12:34:57;14.32;;;12.57;;
60502;SDS011;51448;51.660;5.824;2024-03-06T12:37:28;13.23;;;11.63;;
60502;SDS011;51448;51.660;5.824;2024-03-06T12:40:02;16.55;;;11.85;;
60502;SDS011;51448;51.660;5.824;2024-03-06T12:42:40;14.25;;;11.55;;
60502;SDS011;51448;51.660;5.824;2024-03-06T12:45:08;15.82;;;11.32;;
60502;SDS011;51448;51.660;5.824;2024-03-06T12:47:37;13.43;;;11.02;;
60502;SDS011;51448;51.660;5.824;2024-03-06T12:50:05;13.57;;;11.05;;
60502;SDS011;51448;51.660;5.824;2024-03-06T12:52:35;14.52;;;11.30;;
60502;SDS011;51448;51.660;5.824;2024-03-06T12:55:02;13.07;;;11.77;;
60502;SDS011;51448;51.660;5.824;2024-03-06T12:57:33;13.43;;;10.73;;
60502;SDS011;51448;51.660;5.824;2024-03-06T13:00:01;15.90;;;12.30;;
60502;SDS011;51448;51.660;5.824;2024-03-06T13:02:30;13.38;;;11.27;;
60502;SDS011;51448;51.660;5.824;2024-03-06T13:04:58;14.68;;;10.68;;
60502;SDS011;51448;51.660;5.824;2024-03-06T13:07:25;14.57;;;11.50;;
60502;SDS011;51448;51.660;5.824;2024-03-06T13:09:54;13.45;;;11.05;;
60502;SDS011;51448;51.660;5.824;2024-03-06T13:12:21;12.30;;;9.98;;
60502;SDS011;51448;51.660;5.824;2024-03-06T13:14:49;13.45;;;11.05;;
60502;SDS011;51448;51.660;5.824;2024-03-06T13:17:17;11.68;;;10.48;;
60502;SDS011;51448;51.660;5.824;2024-03-06T13:19:45;16.55;;;11.30;;
60502;SDS011;51448;51.660;5.824;2024-03-06T13:22:14;13.27;;;11.00;;
60502;SDS011;51448;51.660;5.824;2024-03-06T13:24:42;13.65;;;11.25;;
60502;SDS011;51448;51.660;5.824;2024-03-06T13:27:12;14.30;;;10.82;;
60502;SDS011;51448;51.660;5.824;2024-03-06T13:29:39;14.25;;;11.63;;
60502;SDS011;51448;51.660;5.824;2024-03-06T13:32:07;12.43;;;10.45;;
60502;SDS011;51448;51.660;5.824;2024-03-06T13:34:35;14.98;;;10.07;;
60502;SDS011;51448;51.660;5.824;2024-03-06T13:37:03;11.25;;;9.50;;
60502;SDS011;51448;51.660;5.824;2024-03-06T13:39:30;13.93;;;10.65;;
60502;SDS011;51448;51.660;5.824;2024-03-06T13:41:58;17.95;;;11.40;;
60502;SDS011;51448;51.660;5.824;2024-03-06T13:44:26;12.57;;;9.05;;
60502;SDS011;51448;51.660;5.824;2024-03-06T13:46:54;11.88;;;9.13;;
60502;SDS011;51448;51.660;5.824;2024-03-06T13:49:40;12.30;;;9.50;;
60502;SDS011;51448;51.660;5.824;2024-03-06T13:52:09;13.95;;;10.00;;
60502;SDS011;51448;51.660;5.824;2024-03-06T13:54:38;14.43;;;10.43;;
60502;SDS011;51448;51.660;5.824;2024-03-06T13:57:10;11.65;;;9.95;;
60502;SDS011;51448;51.660;5.824;2024-03-06T13:59:38;11.95;;;8.73;;
60502;SDS011;51448;51.660;5.824;2024-03-06T14:02:07;12.13;;;8.77;;
60502;SDS011;51448;51.660;5.824;2024-03-06T14:04:35;11.80;;;8.50;;
60502;SDS011;51448;51.660;5.824;2024-03-06T14:07:03;9.63;;;8.63;;
60502;SDS011;51448;51.660;5.824;2024-03-06T14:09:31;12.73;;;9.00;;
60502;SDS011;51448;51.660;5.824;2024-03-06T14:11:58;10.50;;;8.65;;
60502;SDS011;51448;51.660;5.824;2024-03-06T14:14:26;9.85;;;8.43;;
60502;SDS011;51448;51.660;5.824;2024-03-06T14:16:54;9.68;;;8.65;;
60502;SDS011;51448;51.660;5.824;2024-03-06T14:19:22;10.75;;;8.43;;
60502;SDS011;51448;51.660;5.824;2024-03-06T14:21:50;11.82;;;9.07;;
60502;SDS011;51448;51.660;5.824;2024-03-06T14:24:18;11.70;;;9.27;;
60502;SDS011;51448;51.660;5.824;2024-03-06T14:26:47;13.13;;;9.23;;
60502;SDS011;51448;51.660;5.824;2024-03-06T14:29:18;12.98;;;10.38;;
60502;SDS011;51448;51.660;5.824;2024-03-06T14:31:46;15.88;;;10.13;;
60502;SDS011;51448;51.660;5.824;2024-03-06T14:34:14;13.77;;;10.07;;
60502;SDS011;51448;51.660;5.824;2024-03-06T14:36:42;14.57;;;9.82;;
60502;SDS011;51448;51.660;5.824;2024-03-06T14:39:09;13.18;;;9.88;;
60502;SDS011;51448;51.660;5.824;2024-03-06T14:41:41;10.88;;;9.05;;
60502;SDS011;51448;51.660;5.824;2024-03-06T14:44:10;11.05;;;9.77;;
60502;SDS011;51448;51.660;5.824;2024-03-06T14:46:38;11.38;;;9.25;;
60502;SDS011;51448;51.660;5.824;2024-03-06T14:49:08;15.48;;;11.15;;
60502;SDS011;51448;51.660;5.824;2024-03-06T14:51:36;19.67;;;14.27;;
60502;SDS011;51448;51.660;5.824;2024-03-06T14:54:03;18.42;;;14.00;;